Time;durP1;ratioP1;P1;durP2;ratioP2;P2;SDS_P1;SDS_P2;PMS_P1;PMS_P2;Temp;Humidity;BMP_temperature;BMP_pressure;BME280_temperature;BME280_humidity;BME280_pressure;Samples;Min_cycle;Max_cycle;Signal;HPM_P1;HPM_P2
2020/12/30 00:01:26;;;;;;;;;;;19.30;39.60;;;;;;491961;240;1044;-53
2020/12/30 00:03:27;;;;;;;;;;;19.30;39.70;;;;;;491657;240;1210;-53
2020/12/30 00:05:29;;;;;;;;;;;19.30;39.70;;;;;;491774;240;1050;-53
2020/12/30 00:07:30;;;;;;;;;;;19.20;39.70;;;;;;491749;240;1036;-53
2020/12/30 00:09:31;;;;;;;;;;;19.20;39.80;;;;;;491741;240;1129;-53
2020/12/30 00:11:32;;;;;;;;;;;19.20;39.80;;;;;;491600;240;1332;-53
2020/12/30 00:13:34;;;;;;;;;;;19.10;39.80;;;;;;491815;240;1004;-53
2020/12/30 00:15:35;;;;;;;;;;;19.10;39.90;;;;;;491532;240;2187;-53
2020/12/30 00:17:38;;;;;;;;;;;19.10;40.00;;;;;;491692;240;1197;-53
2020/12/30 00:19:38;;;;;;;;;;;19.10;40.00;;;;;;491851;240;2185;-53
2020/12/30 00:21:39;;;;;;;;;;;19.10;40.00;;;;;;491690;240;1590;-53
2020/12/30 00:23:41;;;;;;;;;;;19.00;40.00;;;;;;491631;240;1227;-53
2020/12/30 00:25:42;;;;;;;;;;;19.00;40.10;;;;;;491672;240;1269;-53
2020/12/30 00:27:43;;;;;;;;;;;19.00;40.10;;;;;;491648;240;1153;-53
2020/12/30 00:29:44;;;;;;;;;;;19.00;40.20;;;;;;491849;240;1318;-53
2020/12/30 00:31:46;;;;;;;;;;;18.90;40.20;;;;;;491650;240;1267;-53
2020/12/30 00:33:47;;;;;;;;;;;18.90;40.20;;;;;;491750;240;1124;-53
2020/12/30 00:35:48;;;;;;;;;;;18.90;40.20;;;;;;492153;240;2125;-53
2020/12/30 00:37:50;;;;;;;;;;;18.90;40.20;;;;;;491649;240;1078;-53
2020/12/30 00:39:51;;;;;;;;;;;18.90;40.30;;;;;;491825;240;1151;-53
2020/12/30 00:41:52;;;;;;;;;;;18.90;40.30;;;;;;491929;240;1082;-52
2020/12/30 00:43:53;;;;;;;;;;;18.90;40.30;;;;;;491651;240;1019;-53
2020/12/30 00:45:55;;;;;;;;;;;18.80;40.30;;;;;;491594;240;1002;-53
2020/12/30 00:47:56;;;;;;;;;;;18.80;40.40;;;;;;491669;240;1029;-53
2020/12/30 00:49:57;;;;;;;;;;;18.80;40.40;;;;;;491760;240;1137;-53
2020/12/30 00:51:58;;;;;;;;;;;18.80;40.40;;;;;;491750;240;1023;-52
2020/12/30 00:54:00;;;;;;;;;;;18.80;40.50;;;;;;491727;239;1284;-52
2020/12/30 00:56:01;;;;;;;;;;;18.70;40.40;;;;;;491763;240;2175;-53
2020/12/30 00:58:02;;;;;;;;;;;18.70;40.50;;;;;;491630;240;1066;-53
2020/12/30 01:00:04;;;;;;;;;;;18.70;40.50;;;;;;491632;240;1051;-53
2020/12/30 01:02:05;;;;;;;;;;;18.70;40.50;;;;;;491560;240;1044;-52
2020/12/30 01:04:06;;;;;;;;;;;18.60;40.50;;;;;;491865;240;1052;-53
2020/12/30 01:06:07;;;;;;;;;;;18.70;40.60;;;;;;491922;240;970;-52
2020/12/30 01:08:09;;;;;;;;;;;18.60;40.50;;;;;;491733;240;1104;-53
2020/12/30 01:10:10;;;;;;;;;;;18.60;40.60;;;;;;491791;240;1153;-53
2020/12/30 01:12:12;;;;;;;;;;;18.60;40.60;;;;;;491936;240;1066;-53
2020/12/30 01:14:13;;;;;;;;;;;18.60;40.60;;;;;;491819;240;1051;-53
2020/12/30 01:16:14;;;;;;;;;;;18.60;40.60;;;;;;491703;240;2141;-53
2020/12/30 01:18:15;;;;;;;;;;;18.60;40.60;;;;;;491659;240;1102;-53
2020/12/30 01:20:17;;;;;;;;;;;18.60;40.70;;;;;;491670;240;1310;-53
2020/12/30 01:22:18;;;;;;;;;;;18.50;40.60;;;;;;491663;240;1025;-53
2020/12/30 01:24:19;;;;;;;;;;;18.50;40.70;;;;;;491719;239;1325;-53
2020/12/30 01:26:20;;;;;;;;;;;18.50;40.70;;;;;;491658;240;1053;-53
2020/12/30 01:28:22;;;;;;;;;;;18.50;40.70;;;;;;491615;240;1089;-53
2020/12/30 01:30:23;;;;;;;;;;;18.50;40.70;;;;;;491648;240;1031;-52
2020/12/30 01:32:24;;;;;;;;;;;18.50;40.70;;;;;;491609;240;1016;-53
2020/12/30 01:34:26;;;;;;;;;;;18.50;40.70;;;;;;492052;240;1027;-53
2020/12/30 01:36:27;;;;;;;;;;;18.40;40.70;;;;;;492036;240;2211;-53
2020/12/30 01:38:28;;;;;;;;;;;18.40;39.40;;;;;;491854;240;1239;-53
2020/12/30 01:40:29;;;;;;;;;;;18.40;40.70;;;;;;491766;240;1169;-53
2020/12/30 01:42:31;;;;;;;;;;;18.40;39.40;;;;;;491799;240;1340;-53
2020/12/30 01:44:32;;;;;;;;;;;18.40;40.80;;;;;;491836;240;1045;-53
2020/12/30 01:46:34;;;;;;;;;;;18.40;40.80;;;;;;491764;240;1116;-52
2020/12/30 01:48:35;;;;;;;;;;;18.40;40.80;;;;;;491763;240;1219;-53
2020/12/30 01:50:37;;;;;;;;;;;18.40;40.80;;;;;;491601;240;1270;-53
2020/12/30 01:52:38;;;;;;;;;;;18.40;40.80;;;;;;491607;240;1397;-53
2020/12/30 01:54:39;;;;;;;;;;;18.40;40.80;;;;;;491671;240;1056;-53
2020/12/30 01:56:41;;;;;;;;;;;18.30;39.50;;;;;;491609;240;2160;-53
2020/12/30 01:58:42;;;;;;;;;;;18.40;40.90;;;;;;491607;240;1207;-53
2020/12/30 02:00:43;;;;;;;;;;;18.30;40.80;;;;;;491715;240;1054;-53
2020/12/30 02:02:44;;;;;;;;;;;18.30;40.80;;;;;;491690;240;1271;-52
2020/12/30 02:04:46;;;;;;;;;;;18.30;40.80;;;;;;491817;240;982;-53
2020/12/30 02:06:47;;;;;;;;;;;18.30;40.80;;;;;;491628;240;1062;-53
2020/12/30 02:08:48;;;;;;;;;;;18.30;40.80;;;;;;491613;240;1061;-53
2020/12/30 02:10:49;;;;;;;;;;;18.30;40.80;;;;;;491841;240;1162;-53
2020/12/30 02:12:51;;;;;;;;;;;18.30;40.90;;;;;;491729;240;1104;-53
2020/12/30 02:14:52;;;;;;;;;;;18.30;40.90;;;;;;491908;240;1088;-53
2020/12/30 02:16:53;;;;;;;;;;;18.30;40.90;;;;;;491693;240;2142;-53
2020/12/30 02:18:55;;;;;;;;;;;18.30;40.90;;;;;;491746;240;1046;-53
2020/12/30 02:20:56;;;;;;;;;;;18.20;40.90;;;;;;491975;240;1008;-53
2020/12/30 02:22:57;;;;;;;;;;;18.30;40.90;;;;;;491657;240;1075;-53
2020/12/30 02:24:58;;;;;;;;;;;18.20;40.90;;;;;;491776;240;969;-53
2020/12/30 02:27:00;;;;;;;;;;;18.20;40.90;;;;;;491616;240;1166;-52
2020/12/30 02:29:01;;;;;;;;;;;18.20;40.90;;;;;;491820;240;1039;-53
2020/12/30 02:31:02;;;;;;;;;;;18.20;40.90;;;;;;491642;240;1050;-53
2020/12/30 02:33:04;;;;;;;;;;;18.20;40.90;;;;;;491669;240;1097;-52
2020/12/30 02:35:05;;;;;;;;;;;18.20;41.00;;;;;;491726;240;1079;-53
2020/12/30 02:37:07;;;;;;;;;;;18.20;40.90;;;;;;491759;240;2132;-53
2020/12/30 02:39:08;;;;;;;;;;;18.20;41.00;;;;;;491725;240;1066;-53
2020/12/30 02:41:09;;;;;;;;;;;18.20;40.90;;;;;;491633;240;1156;-53
2020/12/30 02:43:11;;;;;;;;;;;18.20;41.00;;;;;;491687;240;1031;-53
2020/12/30 02:45:12;;;;;;;;;;;18.20;41.00;;;;;;491680;240;1030;-53
2020/12/30 02:47:13;;;;;;;;;;;18.20;41.00;;;;;;491838;240;1060;-52
2020/12/30 02:49:15;;;;;;;;;;;18.10;41.00;;;;;;491697;240;1180;-53
2020/12/30 02:51:16;;;;;;;;;;;18.20;40.90;;;;;;491723;240;994;-53
2020/12/30 02:53:17;;;;;;;;;;;18.20;40.80;;;;;;491723;240;1017;-53
2020/12/30 02:55:18;;;;;;;;;;;18.20;40.80;;;;;;491926;240;1120;-53
2020/12/30 02:57:20;;;;;;;;;;;18.20;40.70;;;;;;491635;240;2195;-53
2020/12/30 02:59:21;;;;;;;;;;;18.30;40.70;;;;;;491847;240;1012;-53
2020/12/30 03:01:22;;;;;;;;;;;18.30;40.70;;;;;;491677;240;1236;-53
2020/12/30 03:03:24;;;;;;;;;;;18.30;40.60;;;;;;491656;240;1032;-53
2020/12/30 03:05:25;;;;;;;;;;;18.30;40.60;;;;;;491652;240;2329;-53
2020/12/30 03:07:26;;;;;;;;;;;18.30;40.50;;;;;;491885;240;998;-53
2020/12/30 03:09:27;;;;;;;;;;;18.40;40.50;;;;;;491799;240;1040;-53
2020/12/30 03:11:28;;;;;;;;;;;18.40;40.50;;;;;;491688;240;1140;-53
2020/12/30 03:13:30;;;;;;;;;;;18.40;40.40;;;;;;491835;240;976;-53
2020/12/30 03:15:31;;;;;;;;;;;18.40;40.40;;;;;;491712;240;1233;-53
2020/12/30 03:17:32;;;;;;;;;;;18.40;40.40;;;;;;491691;240;2195;-53
2020/12/30 03:19:34;;;;;;;;;;;18.40;40.30;;;;;;491952;240;1372;-53
2020/12/30 03:21:35;;;;;;;;;;;18.50;40.30;;;;;;491616;240;1195;-53
2020/12/30 03:23:36;;;;;;;;;;;18.50;40.30;;;;;;491813;240;970;-53
2020/12/30 03:25:37;;;;;;;;;;;18.50;40.30;;;;;;491610;240;1398;-53
2020/12/30 03:27:39;;;;;;;;;;;18.50;40.20;;;;;;491639;240;1132;-53
2020/12/30 03:29:40;;;;;;;;;;;18.50;40.20;;;;;;491615;242;1294;-54
2020/12/30 03:31:41;;;;;;;;;;;18.60;40.20;;;;;;491663;240;1470;-53
2020/12/30 03:33:43;;;;;;;;;;;18.60;40.20;;;;;;491767;240;1014;-53
2020/12/30 03:35:44;;;;;;;;;;;18.60;40.10;;;;;;491614;240;1056;-53
2020/12/30 03:37:45;;;;;;;;;;;18.60;40.10;;;;;;491742;240;2157;-53
2020/12/30 03:39:46;;;;;;;;;;;18.60;40.00;;;;;;491824;240;969;-53
2020/12/30 03:41:48;;;;;;;;;;;18.70;40.10;;;;;;491713;240;1154;-53
2020/12/30 03:43:49;;;;;;;;;;;18.70;40.00;;;;;;491745;240;1065;-52
2020/12/30 03:45:50;;;;;;;;;;;18.70;40.00;;;;;;491780;240;1049;-53
2020/12/30 03:47:51;;;;;;;;;;;18.70;39.90;;;;;;491779;240;1033;-53
2020/12/30 03:49:53;;;;;;;;;;;18.70;39.90;;;;;;491859;240;1136;-52
2020/12/30 03:51:54;;;;;;;;;;;18.70;39.90;;;;;;491590;240;1062;-53
2020/12/30 03:53:55;;;;;;;;;;;18.70;39.80;;;;;;491886;240;1064;-53
2020/12/30 03:55:56;;;;;;;;;;;18.80;39.80;;;;;;491691;240;1153;-53
2020/12/30 03:57:58;;;;;;;;;;;18.80;38.50;;;;;;491609;240;2184;-53
2020/12/30 03:59:59;;;;;;;;;;;18.80;39.80;;;;;;491596;240;1242;-53
2020/12/30 04:02:00;;;;;;;;;;;18.80;39.80;;;;;;491665;240;1028;-53
2020/12/30 04:04:02;;;;;;;;;;;18.80;39.70;;;;;;492001;240;1038;-53
2020/12/30 04:06:03;;;;;;;;;;;18.90;39.80;;;;;;491782;240;1062;-53
2020/12/30 04:08:04;;;;;;;;;;;18.80;39.70;;;;;;491666;240;1080;-53
2020/12/30 04:10:05;;;;;;;;;;;18.90;39.70;;;;;;491737;240;1008;-53
2020/12/30 04:12:07;;;;;;;;;;;18.90;39.70;;;;;;491694;240;1070;-53
2020/12/30 04:14:08;;;;;;;;;;;18.90;39.60;;;;;;491671;240;1035;-53
2020/12/30 04:16:09;;;;;;;;;;;18.90;39.70;;;;;;491671;240;1173;-53
2020/12/30 04:18:11;;;;;;;;;;;18.90;39.60;;;;;;491714;240;2124;-53
2020/12/30 04:20:12;;;;;;;;;;;18.90;39.60;;;;;;491600;240;1047;-53
2020/12/30 04:22:13;;;;;;;;;;;18.90;39.60;;;;;;491683;240;951;-53
2020/12/30 04:24:14;;;;;;;;;;;18.90;39.60;;;;;;491652;240;994;-53
2020/12/30 04:26:16;;;;;;;;;;;19.00;39.60;;;;;;491642;240;976;-53
2020/12/30 04:28:17;;;;;;;;;;;19.00;39.60;;;;;;491613;240;1194;-53
2020/12/30 04:30:18;;;;;;;;;;;19.00;39.60;;;;;;491636;240;1049;-53
2020/12/30 04:32:19;;;;;;;;;;;19.00;39.60;;;;;;491854;240;938;-53
2020/12/30 04:34:21;;;;;;;;;;;19.00;39.50;;;;;;491831;240;1290;-53
2020/12/30 04:36:22;;;;;;;;;;;19.00;39.50;;;;;;491818;240;1160;-53
2020/12/30 04:38:23;;;;;;;;;;;19.00;39.50;;;;;;491733;240;2125;-53
2020/12/30 04:40:25;;;;;;;;;;;19.00;39.50;;;;;;491615;240;1185;-53
2020/12/30 04:42:26;;;;;;;;;;;19.00;39.50;;;;;;491617;240;1159;-53
2020/12/30 04:44:27;;;;;;;;;;;19.10;39.50;;;;;;491672;240;1089;-53
2020/12/30 04:46:28;;;;;;;;;;;19.10;39.50;;;;;;491771;240;1171;-53
2020/12/30 04:48:30;;;;;;;;;;;19.10;39.50;;;;;;491663;240;1065;-53
2020/12/30 04:50:31;;;;;;;;;;;19.10;39.50;;;;;;491734;240;1240;-53
2020/12/30 04:52:32;;;;;;;;;;;19.10;39.40;;;;;;491734;240;1173;-53
2020/12/30 04:54:33;;;;;;;;;;;19.10;39.40;;;;;;491653;240;1084;-53
2020/12/30 04:56:35;;;;;;;;;;;19.20;39.50;;;;;;491810;240;1233;-53
2020/12/30 04:58:36;;;;;;;;;;;19.10;39.40;;;;;;491674;240;2148;-53
2020/12/30 05:00:37;;;;;;;;;;;19.10;39.40;;;;;;491643;240;1251;-53
2020/12/30 05:02:39;;;;;;;;;;;19.10;39.40;;;;;;491699;240;1240;-53
2020/12/30 05:04:40;;;;;;;;;;;19.20;39.40;;;;;;491795;240;1112;-53
2020/12/30 05:06:41;;;;;;;;;;;19.20;39.40;;;;;;491686;240;1306;-53
2020/12/30 05:08:43;;;;;;;;;;;19.20;39.40;;;;;;491827;240;997;-52
2020/12/30 05:10:45;;;;;;;;;;;19.20;39.30;;;;;;491653;240;1027;-53
2020/12/30 05:12:46;;;;;;;;;;;19.20;39.30;;;;;;491785;240;1215;-53
2020/12/30 05:14:47;;;;;;;;;;;19.20;39.30;;;;;;491701;240;1046;-53
2020/12/30 05:16:48;;;;;;;;;;;19.20;39.30;;;;;;491669;240;1049;-53
2020/12/30 05:18:50;;;;;;;;;;;19.20;39.20;;;;;;491588;240;2177;-53
2020/12/30 05:20:51;;;;;;;;;;;19.20;39.20;;;;;;491699;240;1071;-53
2020/12/30 05:22:52;;;;;;;;;;;19.30;39.30;;;;;;491594;240;1076;-53
2020/12/30 05:24:53;;;;;;;;;;;19.30;39.30;;;;;;491647;240;964;-53
2020/12/30 05:26:55;;;;;;;;;;;19.30;39.30;;;;;;491713;240;1042;-53
2020/12/30 05:28:56;;;;;;;;;;;19.30;39.20;;;;;;491690;240;1235;-53
2020/12/30 05:30:57;;;;;;;;;;;19.30;39.20;;;;;;491577;240;1269;-53
2020/12/30 05:32:59;;;;;;;;;;;19.30;39.20;;;;;;491664;240;1053;-53
2020/12/30 05:35:00;;;;;;;;;;;19.30;39.20;;;;;;491606;240;1425;-53
2020/12/30 05:37:01;;;;;;;;;;;19.30;39.20;;;;;;491516;240;1177;-53
2020/12/30 05:39:02;;;;;;;;;;;19.30;39.20;;;;;;491651;240;2124;-53
2020/12/30 05:41:04;;;;;;;;;;;19.30;39.20;;;;;;491550;240;1163;-53
2020/12/30 05:43:05;;;;;;;;;;;19.30;39.10;;;;;;491610;240;1172;-53
2020/12/30 05:45:06;;;;;;;;;;;19.30;39.20;;;;;;491759;240;1243;-53
2020/12/30 05:47:07;;;;;;;;;;;19.30;39.20;;;;;;491565;240;1751;-53
2020/12/30 05:49:09;;;;;;;;;;;19.40;39.20;;;;;;491796;240;1032;-53
2020/12/30 05:51:10;;;;;;;;;;;19.40;39.20;;;;;;491701;240;1278;-53
2020/12/30 05:53:11;;;;;;;;;;;19.40;39.20;;;;;;491740;240;1051;-53
2020/12/30 05:55:13;;;;;;;;;;;19.40;39.20;;;;;;491594;240;945;-53
2020/12/30 05:57:14;;;;;;;;;;;19.40;39.20;;;;;;491663;240;1098;-53
2020/12/30 05:59:15;;;;;;;;;;;19.40;39.10;;;;;;491599;240;2113;-53
2020/12/30 06:01:16;;;;;;;;;;;19.40;39.10;;;;;;491598;240;1043;-53
2020/12/30 06:03:18;;;;;;;;;;;19.40;39.10;;;;;;491549;240;1049;-53
2020/12/30 06:05:19;;;;;;;;;;;19.40;39.10;;;;;;491551;240;966;-53
2020/12/30 06:07:20;;;;;;;;;;;19.40;39.10;;;;;;491630;240;1064;-53
2020/12/30 06:09:23;;;;;;;;;;;19.40;39.10;;;;;;491790;240;1048;-53
2020/12/30 06:11:23;;;;;;;;;;;19.40;39.10;;;;;;491576;241;2132;-53
2020/12/30 06:13:24;;;;;;;;;;;19.40;39.10;;;;;;491630;239;1297;-53
2020/12/30 06:15:25;;;;;;;;;;;19.40;39.00;;;;;;491552;240;1030;-53
2020/12/30 06:17:27;;;;;;;;;;;19.40;39.00;;;;;;491547;240;2192;-53
2020/12/30 06:19:28;;;;;;;;;;;19.40;39.00;;;;;;491562;240;1050;-53
2020/12/30 06:21:29;;;;;;;;;;;19.50;39.10;;;;;;491620;240;1062;-53
2020/12/30 06:23:30;;;;;;;;;;;19.50;39.10;;;;;;491571;240;1200;-53
2020/12/30 06:25:32;;;;;;;;;;;19.50;39.00;;;;;;491622;240;1107;-53
2020/12/30 06:27:33;;;;;;;;;;;19.50;39.00;;;;;;491643;240;1024;-53
2020/12/30 06:29:34;;;;;;;;;;;19.50;39.00;;;;;;491575;240;1176;-53
2020/12/30 06:31:36;;;;;;;;;;;19.50;39.00;;;;;;491667;240;1116;-53
2020/12/30 06:33:37;;;;;;;;;;;19.50;39.00;;;;;;491630;240;1048;-53
2020/12/30 06:35:38;;;;;;;;;;;19.50;39.00;;;;;;491582;240;1056;-53
2020/12/30 06:37:41;;;;;;;;;;;19.50;39.00;;;;;;491768;240;2188;-53
2020/12/30 06:39:41;;;;;;;;;;;19.50;38.90;;;;;;491779;241;1418;-53
2020/12/30 06:41:42;;;;;;;;;;;19.50;38.90;;;;;;491641;240;1242;-53
2020/12/30 06:43:44;;;;;;;;;;;19.60;39.00;;;;;;491488;240;1130;-53
2020/12/30 06:45:45;;;;;;;;;;;19.60;39.00;;;;;;491557;240;1044;-53
2020/12/30 06:47:46;;;;;;;;;;;19.50;38.90;;;;;;491455;240;1128;-53
2020/12/30 06:49:47;;;;;;;;;;;19.60;39.00;;;;;;491526;240;1069;-53
2020/12/30 06:51:49;;;;;;;;;;;19.60;38.90;;;;;;491628;240;1187;-53
2020/12/30 06:53:50;;;;;;;;;;;19.60;38.90;;;;;;491564;240;1061;-54
2020/12/30 06:55:51;;;;;;;;;;;19.60;39.00;;;;;;491530;240;1084;-53
2020/12/30 06:57:53;;;;;;;;;;;19.60;38.90;;;;;;491566;240;2140;-53
2020/12/30 06:59:54;;;;;;;;;;;19.60;38.90;;;;;;491609;240;1179;-53
2020/12/30 07:01:55;;;;;;;;;;;19.60;38.90;;;;;;491470;240;1216;-53
2020/12/30 07:03:56;;;;;;;;;;;19.60;38.90;;;;;;491518;240;1019;-53
2020/12/30 07:05:58;;;;;;;;;;;19.60;38.90;;;;;;491725;240;1038;-53
2020/12/30 07:07:59;;;;;;;;;;;19.60;38.90;;;;;;491622;240;1047;-53
2020/12/30 07:10:00;;;;;;;;;;;19.60;38.90;;;;;;491565;240;1116;-53
2020/12/30 07:12:02;;;;;;;;;;;19.60;38.90;;;;;;491406;240;1152;-53
2020/12/30 07:14:03;;;;;;;;;;;19.60;38.90;;;;;;491550;240;1259;-53
2020/12/30 07:16:04;;;;;;;;;;;19.60;38.80;;;;;;491576;240;1054;-53
2020/12/30 07:18:09;;;;;;;;;;;19.60;38.90;;;;;;491548;240;2128;-53
2020/12/30 07:20:10;;;;;;;;;;;19.60;38.80;;;;;;491500;240;1391;-53
2020/12/30 07:22:11;;;;;;;;;;;19.60;38.80;;;;;;491537;240;1371;-53
2020/12/30 07:24:13;;;;;;;;;;;19.60;38.80;;;;;;491548;240;1176;-53
2020/12/30 07:26:14;;;;;;;;;;;19.60;38.80;;;;;;491636;240;1032;-53
2020/12/30 07:28:15;;;;;;;;;;;19.60;38.80;;;;;;491506;240;1133;-53
2020/12/30 07:30:16;;;;;;;;;;;19.60;38.80;;;;;;491414;240;1173;-53
2020/12/30 07:32:18;;;;;;;;;;;19.60;38.80;;;;;;491423;240;1222;-53
2020/12/30 07:34:19;;;;;;;;;;;19.60;38.80;;;;;;491470;240;1051;-53
2020/12/30 07:36:21;;;;;;;;;;;19.60;38.70;;;;;;491378;240;1106;-53
2020/12/30 07:38:22;;;;;;;;;;;19.70;38.80;;;;;;491361;240;2132;-53
2020/12/30 07:40:23;;;;;;;;;;;19.70;38.80;;;;;;491446;240;1132;-53
2020/12/30 07:42:26;;;;;;;;;;;19.70;38.80;;;;;;491361;240;1553;-53
2020/12/30 07:44:26;;;;;;;;;;;19.70;38.80;;;;;;491426;240;1494;-53
2020/12/30 07:46:27;;;;;;;;;;;19.70;37.50;;;;;;491538;240;1206;-53
2020/12/30 07:48:28;;;;;;;;;;;19.70;38.80;;;;;;491447;240;1169;-53
2020/12/30 07:50:30;;;;;;;;;;;19.70;38.80;;;;;;491614;240;1066;-53
2020/12/30 07:52:31;;;;;;;;;;;19.70;38.80;;;;;;491467;240;1341;-53
2020/12/30 07:54:32;;;;;;;;;;;19.70;38.80;;;;;;491461;240;981;-53
2020/12/30 07:56:33;;;;;;;;;;;19.70;38.70;;;;;;491391;240;1267;-53
2020/12/30 07:58:35;;;;;;;;;;;19.70;37.50;;;;;;491511;240;2235;-53
2020/12/30 08:00:36;;;;;;;;;;;19.70;38.70;;;;;;491453;240;1172;-53
2020/12/30 08:02:37;;;;;;;;;;;19.80;38.80;;;;;;491499;240;1141;-53
2020/12/30 08:04:39;;;;;;;;;;;19.70;38.70;;;;;;491526;240;952;-53
2020/12/30 08:06:40;;;;;;;;;;;19.70;38.70;;;;;;491574;240;1029;-53
2020/12/30 08:08:41;;;;;;;;;;;19.70;38.70;;;;;;491496;240;971;-53
2020/12/30 08:10:42;;;;;;;;;;;19.70;38.70;;;;;;491531;240;1111;-53
2020/12/30 08:12:44;;;;;;;;;;;19.80;38.80;;;;;;491436;240;1020;-53
2020/12/30 08:14:45;;;;;;;;;;;19.70;38.70;;;;;;491456;240;1107;-53
2020/12/30 08:16:46;;;;;;;;;;;19.80;38.80;;;;;;491384;240;1040;-53
2020/12/30 08:18:48;;;;;;;;;;;19.80;38.70;;;;;;491437;240;2191;-54
2020/12/30 08:20:49;;;;;;;;;;;19.80;38.70;;;;;;491342;240;1155;-53
2020/12/30 08:22:50;;;;;;;;;;;19.80;38.70;;;;;;491350;240;1169;-53
2020/12/30 08:24:51;;;;;;;;;;;19.80;38.70;;;;;;491401;240;1294;-53
2020/12/30 08:26:53;;;;;;;;;;;19.80;38.70;;;;;;491386;240;1177;-53
2020/12/30 08:28:54;;;;;;;;;;;19.80;38.70;;;;;;491341;240;1146;-53
2020/12/30 08:30:55;;;;;;;;;;;19.80;38.70;;;;;;491469;240;1172;-53
2020/12/30 08:32:56;;;;;;;;;;;19.80;38.70;;;;;;491446;240;1140;-53
2020/12/30 08:34:58;;;;;;;;;;;19.80;38.70;;;;;;491520;240;1087;-54
2020/12/30 08:36:59;;;;;;;;;;;19.80;38.70;;;;;;491466;240;1328;-53
2020/12/30 08:39:00;;;;;;;;;;;19.80;38.70;;;;;;491430;240;2144;-53
2020/12/30 08:41:02;;;;;;;;;;;19.80;38.70;;;;;;491364;240;1376;-53
2020/12/30 08:43:03;;;;;;;;;;;19.80;38.70;;;;;;491492;240;1149;-53
2020/12/30 08:45:04;;;;;;;;;;;19.80;38.60;;;;;;491476;240;1276;-53
2020/12/30 08:47:05;;;;;;;;;;;19.80;38.70;;;;;;491464;240;1175;-53
2020/12/30 08:49:07;;;;;;;;;;;19.80;38.70;;;;;;491504;240;1036;-53
2020/12/30 08:51:08;;;;;;;;;;;19.80;38.70;;;;;;491394;240;1186;-53
2020/12/30 08:53:09;;;;;;;;;;;19.80;38.60;;;;;;491407;240;1175;-53
2020/12/30 08:55:11;;;;;;;;;;;19.80;38.60;;;;;;491439;240;1191;-53
2020/12/30 08:57:12;;;;;;;;;;;19.90;38.70;;;;;;491449;240;1089;-53
2020/12/30 08:59:13;;;;;;;;;;;19.80;38.60;;;;;;491531;240;2188;-53
2020/12/30 09:01:14;;;;;;;;;;;19.80;38.60;;;;;;491505;240;1179;-53
2020/12/30 09:03:16;;;;;;;;;;;19.80;38.60;;;;;;491496;240;1098;-53
2020/12/30 09:05:17;;;;;;;;;;;19.80;38.60;;;;;;491423;240;1021;-53
2020/12/30 09:07:18;;;;;;;;;;;19.90;38.80;;;;;;491468;240;1071;-53
2020/12/30 09:09:19;;;;;;;;;;;19.90;38.80;;;;;;491474;240;1076;-53
2020/12/30 09:11:21;;;;;;;;;;;20.00;38.50;;;;;;491458;240;1210;-52
2020/12/30 09:13:22;;;;;;;;;;;20.00;38.50;;;;;;491453;240;986;-53
2020/12/30 09:15:23;;;;;;;;;;;19.90;38.40;;;;;;491402;240;1181;-53
2020/12/30 09:17:25;;;;;;;;;;;19.90;38.50;;;;;;491449;240;1162;-53
2020/12/30 09:19:26;;;;;;;;;;;19.90;38.60;;;;;;491540;240;2149;-53
2020/12/30 09:21:27;;;;;;;;;;;19.80;37.40;;;;;;491369;240;1100;-53
2020/12/30 09:23:28;;;;;;;;;;;19.80;38.80;;;;;;491424;240;1353;-53
2020/12/30 09:25:30;;;;;;;;;;;19.70;38.80;;;;;;491415;240;1283;-53
2020/12/30 09:27:31;;;;;;;;;;;19.70;38.90;;;;;;491435;240;1131;-53
2020/12/30 09:29:32;;;;;;;;;;;19.70;39.00;;;;;;491493;240;1065;-53
2020/12/30 09:31:33;;;;;;;;;;;19.60;39.00;;;;;;491471;240;1180;-53
2020/12/30 09:33:35;;;;;;;;;;;19.60;39.10;;;;;;491364;240;1066;-52
2020/12/30 09:35:36;;;;;;;;;;;19.60;39.10;;;;;;491480;240;1056;-53
2020/12/30 09:37:37;;;;;;;;;;;19.60;39.20;;;;;;491424;240;1069;-53
2020/12/30 09:39:39;;;;;;;;;;;19.50;39.20;;;;;;491461;240;2204;-53
2020/12/30 09:41:40;;;;;;;;;;;19.50;39.30;;;;;;491545;240;1083;-53
2020/12/30 09:43:41;;;;;;;;;;;19.40;39.30;;;;;;491489;240;1045;-53
2020/12/30 09:45:43;;;;;;;;;;;19.40;39.30;;;;;;491474;240;1188;-52
2020/12/30 09:47:44;;;;;;;;;;;19.40;39.40;;;;;;491492;240;1630;-53
2020/12/30 09:49:45;;;;;;;;;;;19.40;39.50;;;;;;491568;240;966;-53
2020/12/30 09:51:46;;;;;;;;;;;19.30;39.50;;;;;;491632;240;1023;-53
2020/12/30 09:53:50;;;;;;;;;;;19.30;39.50;;;;;;491468;240;1199;-53
2020/12/30 09:55:50;;;;;;;;;;;19.30;39.50;;;;;;491501;241;1385;-53
2020/12/30 09:57:50;;;;;;;;;;;19.30;39.60;;;;;;491387;242;2165;-53
2020/12/30 09:59:51;;;;;;;;;;;19.20;39.60;;;;;;491526;240;2195;-53
2020/12/30 10:01:53;;;;;;;;;;;19.20;39.60;;;;;;491477;240;1170;-53
2020/12/30 10:03:54;;;;;;;;;;;19.20;39.70;;;;;;491601;240;1220;-53
2020/12/30 10:05:55;;;;;;;;;;;19.20;39.70;;;;;;491416;240;997;-53
2020/12/30 10:07:56;;;;;;;;;;;19.10;39.60;;;;;;491389;240;1293;-53
2020/12/30 10:09:58;;;;;;;;;;;19.10;39.70;;;;;;491331;240;1192;-53
2020/12/30 10:11:59;;;;;;;;;;;19.10;38.50;;;;;;491360;240;1395;-52
2020/12/30 10:14:00;;;;;;;;;;;19.10;38.50;;;;;;491340;240;1035;-53
2020/12/30 10:16:02;;;;;;;;;;;19.10;39.80;;;;;;491437;240;1270;-53
2020/12/30 10:18:03;;;;;;;;;;;19.00;39.80;;;;;;491532;240;1330;-52
2020/12/30 10:20:04;;;;;;;;;;;19.10;39.90;;;;;;491463;240;2129;-53
2020/12/30 10:22:05;;;;;;;;;;;19.00;39.90;;;;;;491387;240;1129;-53
2020/12/30 10:24:07;;;;;;;;;;;19.00;39.90;;;;;;491444;240;1033;-53
2020/12/30 10:26:08;;;;;;;;;;;19.00;39.90;;;;;;491390;240;1031;-53
2020/12/30 10:28:09;;;;;;;;;;;19.00;39.90;;;;;;491375;240;1025;-53
2020/12/30 10:30:10;;;;;;;;;;;19.00;39.90;;;;;;491263;240;1061;-53
2020/12/30 10:32:12;;;;;;;;;;;18.90;39.90;;;;;;491366;240;1213;-52
2020/12/30 10:34:13;;;;;;;;;;;19.00;40.00;;;;;;491479;240;1034;-53
2020/12/30 10:36:14;;;;;;;;;;;18.90;40.00;;;;;;491370;240;1064;-53
2020/12/30 10:38:16;;;;;;;;;;;18.90;40.00;;;;;;491379;240;1081;-53
2020/12/30 10:40:17;;;;;;;;;;;18.90;40.00;;;;;;491418;240;2140;-53
2020/12/30 10:42:18;;;;;;;;;;;18.90;40.10;;;;;;491373;240;1065;-53
2020/12/30 10:44:19;;;;;;;;;;;18.80;38.70;;;;;;491404;240;1148;-53
2020/12/30 10:46:21;;;;;;;;;;;18.90;40.10;;;;;;491407;240;1209;-53
2020/12/30 10:48:22;;;;;;;;;;;18.90;40.10;;;;;;491270;240;1046;-53
2020/12/30 10:50:23;;;;;;;;;;;18.90;40.10;;;;;;491459;240;1106;-53
2020/12/30 10:52:25;;;;;;;;;;;18.90;40.10;;;;;;491467;240;1054;-53
2020/12/30 10:54:26;;;;;;;;;;;18.80;40.10;;;;;;491557;240;974;-53
2020/12/30 10:56:28;;;;;;;;;;;18.80;40.10;;;;;;491518;240;1008;-53
2020/12/30 10:58:29;;;;;;;;;;;18.80;40.10;;;;;;491469;240;1207;-53
2020/12/30 11:00:30;;;;;;;;;;;18.80;40.10;;;;;;491351;240;2183;-53
2020/12/30 11:02:32;;;;;;;;;;;18.80;40.10;;;;;;491440;240;1275;-53
2020/12/30 11:04:33;;;;;;;;;;;18.80;38.80;;;;;;491442;240;1053;-53
2020/12/30 11:06:34;;;;;;;;;;;18.80;40.10;;;;;;491359;240;1101;-53
2020/12/30 11:08:36;;;;;;;;;;;18.80;40.10;;;;;;491401;240;1203;-53
2020/12/30 11:10:37;;;;;;;;;;;18.80;40.10;;;;;;491519;240;1024;-53
2020/12/30 11:12:38;;;;;;;;;;;18.80;40.20;;;;;;491364;240;1201;-53
2020/12/30 11:14:39;;;;;;;;;;;18.80;40.20;;;;;;491446;240;1124;-53
2020/12/30 11:16:41;;;;;;;;;;;18.70;40.20;;;;;;491356;240;1173;-53
2020/12/30 11:18:42;;;;;;;;;;;18.70;38.80;;;;;;491373;240;1022;-53
2020/12/30 11:20:43;;;;;;;;;;;18.70;40.20;;;;;;491402;240;2196;-52
2020/12/30 11:22:44;;;;;;;;;;;18.70;40.20;;;;;;491462;240;1372;-53
2020/12/30 11:24:46;;;;;;;;;;;18.70;40.10;;;;;;491576;240;989;-53
2020/12/30 11:26:47;;;;;;;;;;;18.70;40.10;;;;;;491465;240;1026;-53
2020/12/30 11:28:48;;;;;;;;;;;18.70;40.10;;;;;;491444;240;1046;-52
2020/12/30 11:30:50;;;;;;;;;;;18.80;40.20;;;;;;491458;240;1050;-53
2020/12/30 11:32:51;;;;;;;;;;;18.70;38.80;;;;;;491449;240;1251;-53
2020/12/30 11:34:52;;;;;;;;;;;18.70;40.10;;;;;;491493;240;1059;-53
2020/12/30 11:36:53;;;;;;;;;;;18.70;40.10;;;;;;491478;240;1047;-53
2020/12/30 11:38:55;;;;;;;;;;;18.70;40.10;;;;;;491515;240;1061;-53
2020/12/30 11:40:56;;;;;;;;;;;18.70;40.10;;;;;;491431;240;2145;-53
2020/12/30 11:42:57;;;;;;;;;;;18.70;40.10;;;;;;491521;240;1036;-53
2020/12/30 11:44:58;;;;;;;;;;;18.70;40.10;;;;;;491364;240;1063;-52
2020/12/30 11:47:00;;;;;;;;;;;18.70;40.20;;;;;;491382;240;1244;-53
2020/12/30 11:49:01;;;;;;;;;;;18.70;40.20;;;;;;491497;240;1050;-53
2020/12/30 11:51:03;;;;;;;;;;;18.70;40.20;;;;;;491408;240;1021;-53
2020/12/30 11:53:04;;;;;;;;;;;18.60;40.10;;;;;;491318;240;1058;-53
2020/12/30 11:55:05;;;;;;;;;;;18.70;40.20;;;;;;491477;240;1077;-53
2020/12/30 11:57:07;;;;;;;;;;;18.70;40.20;;;;;;491504;240;1137;-53